createdAt,value
2022-11-15T00:00:57.149Z,35.47
2022-11-15T00:03:26.646Z,36.70
2022-11-15T00:05:53.301Z,36.50
2022-11-15T00:08:20.135Z,38.30
2022-11-15T00:10:57.020Z,37.10
2022-11-15T00:13:23.762Z,35.45
2022-11-15T00:15:50.358Z,35.05
2022-11-15T00:18:17.570Z,32.80
2022-11-15T00:20:44.692Z,33.92
2022-11-15T00:23:11.637Z,34.72
2022-11-15T00:25:40.197Z,34.75
2022-11-15T00:28:06.710Z,34.55
2022-11-15T00:30:33.250Z,35.33
2022-11-15T00:33:06.747Z,36.40
2022-11-15T00:35:34.583Z,35.90
2022-11-15T00:38:02.040Z,37.88
2022-11-15T00:40:28.865Z,36.97
2022-11-15T00:42:55.417Z,38.65
2022-11-15T00:45:22.089Z,39.13
2022-11-15T00:47:48.620Z,36.80
2022-11-15T00:50:15.625Z,36.97
2022-11-15T00:52:42.575Z,36.28
2022-11-15T00:55:15.052Z,37.05
2022-11-15T00:57:41.934Z,37.58
2022-11-15T01:00:09.581Z,37.97
2022-11-15T01:02:36.214Z,36.97
2022-11-15T01:05:03.194Z,37.20
2022-11-15T01:07:29.799Z,37.83
2022-11-15T01:09:56.397Z,37.15
2022-11-15T01:12:22.900Z,37.47
2022-11-15T01:14:50.526Z,38.03
2022-11-15T01:17:17.185Z,37.47
2022-11-15T01:19:43.678Z,36.95
2022-11-15T01:22:10.195Z,36.15
2022-11-15T01:24:36.795Z,36.30
2022-11-15T01:27:03.307Z,37.10
2022-11-15T01:29:29.775Z,36.97
2022-11-15T01:31:56.378Z,38.72
2022-11-15T01:34:22.876Z,37.83
2022-11-15T01:36:49.425Z,35.70
2022-11-15T01:39:16.400Z,36.65
2022-11-15T01:41:42.941Z,35.58
2022-11-15T01:44:37.280Z,37.03
2022-11-15T01:47:08.684Z,34.25
2022-11-15T01:49:38.941Z,34.88
2022-11-15T01:52:09.909Z,33.75
2022-11-15T01:54:36.798Z,35.17
2022-11-15T01:57:08.981Z,35.38
2022-11-15T01:59:37.932Z,36.13
2022-11-15T02:02:04.507Z,35.00
2022-11-15T02:04:38.592Z,36.80
2022-11-15T02:07:07.766Z,35.10
2022-11-15T02:09:34.437Z,35.53
2022-11-15T02:12:01.365Z,35.42
2022-11-15T02:14:29.971Z,34.60
2022-11-15T02:17:31.305Z,34.05
2022-11-15T02:20:07.009Z,34.28
2022-11-15T02:22:42.532Z,33.63
2022-11-15T02:25:38.788Z,34.13
2022-11-15T02:28:43.761Z,33.85
2022-11-15T02:31:37.473Z,34.17
2022-11-15T02:34:17.679Z,32.55
2022-11-15T02:37:09.970Z,34.63
2022-11-15T02:39:58.948Z,33.55
2022-11-15T02:42:48.497Z,33.70
2022-11-15T02:45:23.649Z,35.08
2022-11-15T02:47:53.449Z,34.17
2022-11-15T02:50:25.520Z,34.15
2022-11-15T02:52:52.726Z,34.17
2022-11-15T02:55:57.524Z,34.33
2022-11-15T02:58:49.629Z,35.28
2022-11-15T03:01:39.034Z,34.47
2022-11-15T03:04:37.012Z,32.95
2022-11-15T03:07:24.633Z,32.60
2022-11-15T03:10:27.523Z,33.78
2022-11-15T03:13:02.113Z,32.47
2022-11-15T03:15:32.416Z,31.67
2022-11-15T03:18:05.680Z,33.25
2022-11-15T03:20:33.532Z,33.10
2022-11-15T03:23:07.884Z,34.40
2022-11-15T03:25:37.830Z,34.13
2022-11-15T03:28:06.762Z,33.03
2022-11-15T03:30:35.567Z,32.65
2022-11-15T03:33:05.177Z,36.17
2022-11-15T03:35:38.014Z,34.25
2022-11-15T03:38:27.063Z,33.47
2022-11-15T03:41:01.572Z,33.70
2022-11-15T03:43:39.861Z,32.78
2022-11-15T03:46:15.636Z,33.58
2022-11-15T03:48:47.925Z,33.83
2022-11-15T03:51:14.858Z,33.10
2022-11-15T03:53:42.001Z,36.30
2022-11-15T03:56:08.584Z,35.33
2022-11-15T03:58:35.209Z,33.70
2022-11-15T04:01:01.865Z,35.38
2022-11-15T04:03:28.609Z,34.08
2022-11-15T04:05:55.283Z,33.70
2022-11-15T04:08:21.794Z,34.70
2022-11-15T04:10:50.455Z,32.92
2022-11-15T04:13:16.922Z,33.47
2022-11-15T04:15:43.449Z,33.17
2022-11-15T04:18:09.958Z,34.53
2022-11-15T04:20:54.797Z,32.25
2022-11-15T04:23:42.116Z,32.63
2022-11-15T04:26:13.658Z,31.55
2022-11-15T04:28:58.506Z,32.95
2022-11-15T04:31:25.209Z,31.92
2022-11-15T04:33:51.757Z,33.47
2022-11-15T04:36:37.122Z,34.28
2022-11-15T04:39:03.954Z,32.60
2022-11-15T04:41:30.635Z,33.35
2022-11-15T04:43:57.322Z,33.45
2022-11-15T04:46:24.793Z,32.05
2022-11-15T04:48:58.034Z,32.00
2022-11-15T04:51:25.340Z,32.40
2022-11-15T04:53:51.812Z,32.30
2022-11-15T04:56:18.311Z,34.08
2022-11-15T04:58:44.853Z,33.88
2022-11-15T05:01:15.011Z,33.03
2022-11-15T05:04:01.404Z,33.95
2022-11-15T05:06:28.224Z,34.92
2022-11-15T05:08:55.581Z,35.22
2022-11-15T05:11:22.676Z,36.00
2022-11-15T05:13:49.670Z,35.47
2022-11-15T05:16:16.153Z,34.33
2022-11-15T05:18:42.640Z,34.50
2022-11-15T05:21:11.722Z,34.53
2022-11-15T05:23:38.644Z,36.53
2022-11-15T05:26:09.389Z,35.60
2022-11-15T05:28:37.537Z,35.47
2022-11-15T05:31:17.294Z,35.38
2022-11-15T05:33:45.385Z,35.05
2022-11-15T05:36:18.068Z,36.03
2022-11-15T05:38:46.502Z,37.13
2022-11-15T05:41:14.470Z,37.63
2022-11-15T05:43:42.594Z,37.28
2022-11-15T05:46:09.386Z,37.70
2022-11-15T05:48:38.712Z,38.00
2022-11-15T05:51:07.655Z,38.25
2022-11-15T05:53:34.556Z,36.53
2022-11-15T05:56:01.677Z,36.63
2022-11-15T05:58:28.174Z,36.97
2022-11-15T06:00:55.798Z,36.03
2022-11-15T06:03:22.290Z,39.50
2022-11-15T06:05:48.779Z,40.80
2022-11-15T06:08:15.290Z,41.20
2022-11-15T06:10:41.806Z,41.53
2022-11-15T06:13:08.314Z,44.92
2022-11-15T06:15:35.354Z,45.50
2022-11-15T06:18:02.310Z,46.33
2022-11-15T06:20:30.480Z,49.10
2022-11-15T06:23:00.851Z,47.53
2022-11-15T06:25:29.177Z,49.63
2022-11-15T06:27:56.812Z,49.47
2022-11-15T06:30:24.336Z,52.10
2022-11-15T06:32:53.284Z,48.42
2022-11-15T06:35:19.813Z,49.95
2022-11-15T06:37:46.293Z,51.13
2022-11-15T06:40:12.962Z,50.35
2022-11-15T06:42:39.461Z,50.50
2022-11-15T06:45:06.421Z,51.25
2022-11-15T06:47:32.906Z,51.28
2022-11-15T06:49:59.478Z,51.05
2022-11-15T06:52:26.040Z,52.15
2022-11-15T06:54:52.558Z,53.47
2022-11-15T06:57:19.060Z,55.88
2022-11-15T06:59:45.613Z,54.25
2022-11-15T07:02:15.179Z,55.80
2022-11-15T07:04:41.722Z,53.05
2022-11-15T07:07:08.297Z,56.78
2022-11-15T07:09:34.847Z,62.03
2022-11-15T07:12:07.285Z,64.47
2022-11-15T07:14:34.320Z,66.35
2022-11-15T07:17:00.829Z,69.32
2022-11-15T07:19:27.378Z,70.00
2022-11-15T07:21:53.848Z,68.72
2022-11-15T07:24:20.333Z,67.90
2022-11-15T07:26:46.831Z,68.88
2022-11-15T07:29:13.527Z,70.22
2022-11-15T07:31:40.169Z,72.03
2022-11-15T07:34:06.670Z,72.65
2022-11-15T07:36:35.213Z,72.40
2022-11-15T07:39:01.846Z,71.38
2022-11-15T07:41:28.382Z,76.18
2022-11-15T07:43:54.846Z,79.53
2022-11-15T07:46:21.334Z,87.55
2022-11-15T07:48:47.861Z,89.53
2022-11-15T07:51:18.140Z,86.78
2022-11-15T07:53:44.936Z,87.28
2022-11-15T07:56:12.002Z,84.85
2022-11-15T07:58:38.495Z,92.00
2022-11-15T08:01:06.864Z,96.57
2022-11-15T08:03:34.749Z,103.20
2022-11-15T08:06:01.589Z,106.15
2022-11-15T08:08:28.363Z,110.28
2022-11-15T08:10:54.925Z,110.95
2022-11-15T08:13:22.293Z,111.75
2022-11-15T08:15:52.238Z,108.90
2022-11-15T08:18:23.001Z,110.07
2022-11-15T08:20:49.499Z,108.07
2022-11-15T08:23:15.998Z,112.53
2022-11-15T08:25:42.594Z,115.13
2022-11-15T08:28:11.578Z,119.53
2022-11-15T08:30:42.500Z,123.10
2022-11-15T08:33:13.610Z,112.70
2022-11-15T08:35:41.957Z,119.80
2022-11-15T08:38:09.908Z,122.53
2022-11-15T08:40:36.674Z,119.85
2022-11-15T08:43:03.943Z,125.78
2022-11-15T08:45:32.059Z,127.72
2022-11-15T08:47:58.859Z,126.50
2022-11-15T08:50:25.392Z,119.80
2022-11-15T08:52:51.937Z,129.55
2022-11-15T08:55:18.625Z,129.82
2022-11-15T08:57:45.446Z,138.45
2022-11-15T09:00:13.366Z,150.27
2022-11-15T09:02:40.998Z,159.20
2022-11-15T09:05:08.213Z,155.68
2022-11-15T09:07:34.857Z,160.93
2022-11-15T09:10:01.562Z,168.35
2022-11-15T09:12:28.505Z,170.75
2022-11-15T09:14:55.687Z,169.55
2022-11-15T09:17:25.023Z,170.80
2022-11-15T09:19:51.925Z,169.05
2022-11-15T09:22:19.062Z,178.65
2022-11-15T09:24:45.625Z,183.70
2022-11-15T09:27:12.721Z,185.75
2022-11-15T09:29:39.285Z,192.55
2022-11-15T09:32:05.858Z,197.75
2022-11-15T09:34:32.385Z,209.27
2022-11-15T09:36:58.891Z,212.48
2022-11-15T09:39:25.388Z,222.02
2022-11-15T09:42:02.454Z,227.65
2022-11-15T09:44:44.410Z,230.85
2022-11-15T09:47:48.894Z,223.02
2022-11-15T09:50:33.441Z,220.63
2022-11-15T09:52:59.975Z,224.63
2022-11-15T09:55:41.922Z,235.75
2022-11-15T09:58:30.585Z,226.35
2022-11-15T10:01:01.018Z,224.43
2022-11-15T10:03:34.419Z,227.13
2022-11-15T10:06:04.653Z,206.25
2022-11-15T10:08:55.793Z,209.63
2022-11-15T10:11:42.246Z,206.88
2022-11-15T10:14:19.671Z,205.95
2022-11-15T10:17:10.333Z,210.95
2022-11-15T10:19:53.414Z,205.38
2022-11-15T10:22:28.071Z,205.77
2022-11-15T10:27:46.992Z,184.50
2022-11-15T10:30:17.047Z,201.27
2022-11-15T10:32:45.865Z,203.90
2022-11-15T10:35:21.205Z,209.88
2022-11-15T10:37:48.342Z,207.48
2022-11-15T10:40:22.844Z,210.75
2022-11-15T10:43:06.643Z,202.15
2022-11-15T10:45:35.030Z,206.65
2022-11-15T10:48:13.774Z,209.23
2022-11-15T10:50:48.105Z,200.75
2022-11-15T10:53:33.228Z,195.32
2022-11-15T10:56:09.820Z,187.30
2022-11-15T10:58:42.281Z,192.25
2022-11-15T11:01:16.045Z,191.77
2022-11-15T11:03:44.460Z,193.63
2022-11-15T11:06:14.653Z,194.02
2022-11-15T11:08:53.820Z,198.73
2022-11-15T11:11:20.384Z,195.25
2022-11-15T11:13:46.885Z,200.68
2022-11-15T11:16:16.108Z,196.82
2022-11-15T11:18:45.440Z,198.85
2022-11-15T11:21:15.817Z,196.40
2022-11-15T11:23:58.356Z,191.75
2022-11-15T11:26:43.410Z,187.05
2022-11-15T11:32:02.033Z,150.20
2022-11-15T11:35:13.152Z,163.05
2022-11-15T11:38:01.406Z,161.35
2022-11-15T11:40:55.469Z,166.10
2022-11-15T11:43:41.277Z,165.57
2022-11-15T11:46:29.296Z,164.40
2022-11-15T11:49:10.728Z,165.88
2022-11-15T11:52:05.633Z,170.23
2022-11-15T11:54:53.753Z,169.93
2022-11-15T11:57:48.249Z,161.15
2022-11-15T12:00:28.515Z,168.30
2022-11-15T12:03:13.588Z,165.20
2022-11-15T12:05:47.726Z,170.13
2022-11-15T12:08:31.372Z,170.30
2022-11-15T12:11:30.593Z,173.65
2022-11-15T12:14:04.626Z,174.70
2022-11-15T12:16:33.294Z,181.15
2022-11-15T12:19:04.515Z,186.80
2022-11-15T12:21:58.433Z,196.27
2022-11-15T12:24:30.894Z,184.80
2022-11-15T12:27:11.324Z,196.30
2022-11-15T12:29:44.413Z,203.95
2022-11-15T12:32:30.764Z,200.55
2022-11-15T12:34:58.789Z,196.00
2022-11-15T12:37:38.747Z,201.38
2022-11-15T12:40:08.325Z,191.20
2022-11-15T12:43:00.603Z,193.60
2022-11-15T12:45:36.250Z,187.15
2022-11-15T12:48:20.042Z,188.60
2022-11-15T12:50:55.229Z,185.73
2022-11-15T12:53:28.656Z,191.38
2022-11-15T12:56:22.618Z,190.73
2022-11-15T12:58:59.396Z,188.63
2022-11-15T13:01:46.116Z,196.20
2022-11-15T13:04:27.857Z,191.38
2022-11-15T13:06:54.322Z,194.10
2022-11-15T13:09:32.852Z,200.30
2022-11-15T13:12:04.946Z,190.57
2022-11-15T13:14:51.434Z,199.15
2022-11-15T13:17:41.214Z,197.05
2022-11-15T13:20:07.716Z,189.27
2022-11-15T13:22:53.410Z,190.90
2022-11-15T13:25:28.713Z,206.57
2022-11-15T13:27:59.589Z,207.80
2022-11-15T13:30:31.493Z,209.55
2022-11-15T13:33:08.932Z,223.30
2022-11-15T13:35:41.938Z,216.70
2022-11-15T13:38:38.806Z,211.02
2022-11-15T13:41:21.242Z,204.20
2022-11-15T13:43:49.912Z,210.43
2022-11-15T13:46:28.212Z,216.57
2022-11-15T13:49:01.261Z,215.95
2022-11-15T13:51:36.358Z,214.45
2022-11-15T13:54:19.005Z,208.90
2022-11-15T13:57:06.462Z,204.13
2022-11-15T13:59:37.029Z,195.68
2022-11-15T14:02:16.657Z,198.80
2022-11-15T14:04:51.520Z,199.40
2022-11-15T14:07:21.353Z,199.35
2022-11-15T14:09:48.737Z,204.07
2022-11-15T14:12:23.280Z,203.02
2022-11-15T14:14:49.858Z,203.43
2022-11-15T14:17:49.600Z,203.07
2022-11-15T14:20:39.026Z,188.02
2022-11-15T14:23:27.003Z,190.77
2022-11-15T14:25:58.374Z,187.93
2022-11-15T14:28:24.801Z,190.23
2022-11-15T14:30:53.755Z,197.55
2022-11-15T14:33:30.994Z,192.95
2022-11-15T14:35:59.301Z,194.82
2022-11-15T14:38:26.704Z,194.82
2022-11-15T14:40:54.853Z,193.82
2022-11-15T14:43:21.433Z,196.73
2022-11-15T14:45:48.017Z,193.85
2022-11-15T14:48:14.752Z,191.65
2022-11-15T14:50:41.509Z,192.18
2022-11-15T14:53:12.402Z,194.10
2022-11-15T14:55:39.033Z,191.27
2022-11-15T14:58:08.901Z,192.55
2022-11-15T15:00:39.736Z,188.95
2022-11-15T15:03:07.147Z,195.10
2022-11-15T15:05:39.494Z,193.90
2022-11-15T15:08:07.193Z,186.75
2022-11-15T15:10:41.620Z,185.35
2022-11-15T15:13:21.240Z,189.98
2022-11-15T15:15:49.205Z,187.85
2022-11-15T15:18:16.522Z,181.13
2022-11-15T15:20:44.490Z,190.40
2022-11-15T15:23:21.333Z,191.10
2022-11-15T15:25:50.011Z,188.32
2022-11-15T15:28:16.734Z,191.20
2022-11-15T15:30:43.302Z,191.15
2022-11-15T15:33:09.815Z,190.95
2022-11-15T15:35:36.473Z,193.90
2022-11-15T15:38:04.344Z,189.38
2022-11-15T15:40:33.606Z,193.73
2022-11-15T15:43:00.771Z,194.63
2022-11-15T15:45:28.677Z,191.82
2022-11-15T15:47:55.235Z,192.95
2022-11-15T15:50:24.715Z,191.20
2022-11-15T15:52:53.033Z,191.38
2022-11-15T15:55:20.112Z,193.82
2022-11-15T15:57:47.304Z,191.23
2022-11-15T16:00:14.617Z,189.40
2022-11-15T16:02:41.961Z,193.40
2022-11-15T16:05:09.304Z,195.30
2022-11-15T16:07:35.842Z,196.63
2022-11-15T16:10:03.706Z,194.43
2022-11-15T16:12:36.469Z,189.35
2022-11-15T16:15:04.089Z,189.23
2022-11-15T16:17:39.595Z,194.60
2022-11-15T16:20:07.310Z,190.68
2022-11-15T16:22:33.797Z,189.23
2022-11-15T16:25:00.298Z,189.75
2022-11-15T16:27:26.838Z,192.98
2022-11-15T16:29:53.358Z,191.15
2022-11-15T16:32:20.088Z,191.40
2022-11-15T16:34:49.218Z,195.10
2022-11-15T16:37:25.583Z,197.07
2022-11-15T16:39:53.992Z,195.30
2022-11-15T16:42:23.700Z,195.90
2022-11-15T16:44:50.197Z,202.80
2022-11-15T16:47:22.981Z,201.07
2022-11-15T16:49:49.524Z,201.35
2022-11-15T16:52:21.033Z,196.95
2022-11-15T16:54:48.118Z,193.15
2022-11-15T16:57:14.627Z,196.20
2022-11-15T16:59:41.106Z,196.52
2022-11-15T17:02:13.980Z,195.40
2022-11-15T17:04:40.659Z,193.85
2022-11-15T17:07:07.302Z,196.15
2022-11-15T17:09:34.421Z,195.68
2022-11-15T17:12:00.928Z,201.15
2022-11-15T17:14:27.505Z,202.43
2022-11-15T17:16:55.390Z,205.00
2022-11-15T17:19:21.919Z,207.27
2022-11-15T17:21:52.435Z,197.05
2022-11-15T17:24:21.128Z,199.00
2022-11-15T17:26:48.021Z,198.40
2022-11-15T17:29:14.515Z,199.02
2022-11-15T17:31:41.024Z,191.57
2022-11-15T17:34:07.702Z,188.57
2022-11-15T17:36:35.180Z,186.50
2022-11-15T17:39:04.084Z,188.15
2022-11-15T17:41:30.855Z,185.48
2022-11-15T17:43:59.754Z,186.98
2022-11-15T17:46:27.751Z,186.98
2022-11-15T17:48:55.754Z,185.55
2022-11-15T17:51:24.062Z,190.43
2022-11-15T17:53:51.544Z,187.25
2022-11-15T17:56:20.893Z,182.00
2022-11-15T17:58:49.331Z,184.52
2022-11-15T18:01:21.837Z,186.65
2022-11-15T18:03:48.945Z,192.05
2022-11-15T18:06:16.634Z,186.15
2022-11-15T18:08:44.709Z,184.95
2022-11-15T18:11:20.804Z,184.18
2022-11-15T18:13:53.043Z,181.63
2022-11-15T18:16:21.931Z,182.30
2022-11-15T18:18:49.809Z,180.63
2022-11-15T18:21:21.869Z,179.38
2022-11-15T18:23:52.725Z,179.32
2022-11-15T18:26:23.037Z,184.07
2022-11-15T18:28:53.886Z,182.25
2022-11-15T18:31:21.412Z,180.52
2022-11-15T18:33:49.296Z,186.38
2022-11-15T18:36:28.043Z,183.95
2022-11-15T18:38:56.524Z,181.15
2022-11-15T18:41:25.448Z,185.95
2022-11-15T18:43:52.691Z,184.55
2022-11-15T18:46:21.147Z,182.30
2022-11-15T18:48:50.558Z,180.50
2022-11-15T18:51:19.929Z,180.93
2022-11-15T18:53:47.171Z,181.20
2022-11-15T18:56:16.383Z,183.57
2022-11-15T18:58:45.133Z,182.82
2022-11-15T19:01:14.938Z,183.38
2022-11-15T19:03:43.858Z,186.90
2022-11-15T19:06:23.161Z,182.18
2022-11-15T19:08:51.390Z,182.32
2022-11-15T19:11:24.176Z,180.05
2022-11-15T19:14:03.191Z,179.95
2022-11-15T19:16:31.469Z,180.63
2022-11-15T19:19:00.116Z,183.18
2022-11-15T19:21:27.751Z,181.18
2022-11-15T19:23:56.397Z,184.10
2022-11-15T19:26:24.207Z,184.30
2022-11-15T19:28:55.567Z,181.55
2022-11-15T19:31:23.719Z,187.10
2022-11-15T19:33:51.245Z,183.40
2022-11-15T19:36:20.642Z,186.88
2022-11-15T19:38:47.607Z,186.35
2022-11-15T19:41:16.894Z,189.10
2022-11-15T19:43:43.895Z,187.20
2022-11-15T19:46:12.327Z,184.93
2022-11-15T19:48:39.235Z,182.73
2022-11-15T19:51:14.525Z,180.75
2022-11-15T19:53:42.315Z,183.82
2022-11-15T19:56:12.658Z,186.88
2022-11-15T19:58:39.889Z,184.05
2022-11-15T20:01:10.766Z,184.05
2022-11-15T20:03:39.106Z,192.57
2022-11-15T20:06:11.834Z,186.55
2022-11-15T20:08:38.390Z,189.32
2022-11-15T20:11:05.662Z,192.90
2022-11-15T20:13:32.214Z,191.13
2022-11-15T20:15:59.551Z,187.00
2022-11-15T20:18:27.672Z,180.65
2022-11-15T20:20:56.666Z,185.52
2022-11-15T20:23:23.611Z,192.20
2022-11-15T20:25:50.176Z,193.30
2022-11-15T20:28:36.940Z,186.52
2022-11-15T20:31:03.610Z,179.35
2022-11-15T20:33:30.231Z,177.15
2022-11-15T20:35:56.937Z,178.75
2022-11-15T20:38:23.775Z,176.15
2022-11-15T20:40:56.015Z,183.18
2022-11-15T20:43:25.533Z,179.65
2022-11-15T20:45:52.081Z,174.43
2022-11-15T20:48:18.640Z,181.45
2022-11-15T20:50:47.034Z,177.27
2022-11-15T20:53:16.674Z,178.43
2022-11-15T20:55:47.752Z,182.35
2022-11-15T20:58:15.592Z,179.57
2022-11-15T21:00:43.194Z,182.65
2022-11-15T21:03:09.802Z,181.25
2022-11-15T21:05:40.842Z,189.35
2022-11-15T21:08:07.953Z,178.07
2022-11-15T21:10:53.705Z,178.23
2022-11-15T21:13:20.427Z,182.23
2022-11-15T21:15:47.260Z,176.27
2022-11-15T21:18:14.214Z,178.70
2022-11-15T21:20:41.399Z,183.95
2022-11-15T21:23:07.992Z,186.57
2022-11-15T21:25:34.814Z,187.52
2022-11-15T21:28:01.361Z,195.05
2022-11-15T21:30:27.876Z,183.95
2022-11-15T21:32:54.614Z,193.00
2022-11-15T21:35:21.227Z,194.05
2022-11-15T21:37:54.962Z,197.52
2022-11-15T21:40:23.168Z,189.93
2022-11-15T21:42:49.674Z,186.45
2022-11-15T21:45:16.570Z,192.48
2022-11-15T21:47:46.048Z,192.02
2022-11-15T21:50:13.062Z,202.23
2022-11-15T21:52:40.693Z,195.02
2022-11-15T21:55:08.441Z,188.88
2022-11-15T21:57:34.936Z,194.45
2022-11-15T22:00:20.264Z,201.93
2022-11-15T22:02:46.768Z,193.70
2022-11-15T22:05:13.422Z,204.35
2022-11-15T22:07:39.952Z,204.40
2022-11-15T22:10:06.882Z,202.55
2022-11-15T22:12:33.374Z,195.13
2022-11-15T22:14:59.901Z,206.40
2022-11-15T22:17:46.463Z,199.70
2022-11-15T22:20:42.466Z,205.93
2022-11-15T22:23:00.150Z,201.10
2022-11-15T22:25:26.686Z,207.07
2022-11-15T22:27:54.144Z,208.48
2022-11-15T22:30:21.437Z,198.32
2022-11-15T22:32:47.966Z,200.45
2022-11-15T22:35:14.960Z,217.65
2022-11-15T22:37:41.698Z,219.88
2022-11-15T22:40:08.986Z,217.45
2022-11-15T22:42:35.476Z,219.93
2022-11-15T22:45:01.985Z,208.90
2022-11-15T22:47:28.495Z,217.15
2022-11-15T22:49:54.991Z,208.93
2022-11-15T22:52:21.477Z,211.35
2022-11-15T22:54:48.052Z,215.77
2022-11-15T22:57:14.560Z,214.15
2022-11-15T22:59:42.427Z,214.45
2022-11-15T23:02:09.091Z,201.10
2022-11-15T23:04:35.869Z,204.20
2022-11-15T23:07:02.441Z,212.20
2022-11-15T23:09:29.283Z,206.98
2022-11-15T23:12:14.239Z,205.73
2022-11-15T23:14:40.828Z,190.98
2022-11-15T23:17:07.399Z,196.38
2022-11-15T23:19:33.937Z,211.48
2022-11-15T23:22:19.110Z,203.00
2022-11-15T23:24:45.621Z,199.80
2022-11-15T23:27:15.230Z,215.52
2022-11-15T23:30:00.136Z,217.43
2022-11-15T23:32:45.016Z,194.80
2022-11-15T23:35:11.519Z,220.40
2022-11-15T23:37:38.021Z,224.52
2022-11-15T23:40:05.327Z,227.88
2022-11-15T23:42:31.938Z,210.32
2022-11-15T23:44:58.430Z,206.27
2022-11-15T23:47:24.986Z,212.82
2022-11-15T23:49:51.493Z,212.20
2022-11-15T23:52:18.094Z,213.95
2022-11-15T23:54:44.639Z,212.43
2022-11-15T23:57:12.507Z,214.05
2022-11-15T23:59:40.373Z,217.15
